Devine, Texas
Current Conditions -  °F | °C
As of 2:15 PM on Thursday 29 Jan 2015 (Local Time) from KCVB Reporting Station
Clear Clear  
Wind Chill: 68°   Ceiling: Unl
Heat Index: 68°   Visibility: 10mi
Dew Point: 54°   Wind: 0mph
Humidity: 61%   Direction: NA
Pressure: 30.22"   Gusts: NA
Location:  29.14°N, 98.91°W
Report Text: KCVB 292015Z AUTO 00000KT 10SM CLR 20/12 A3022 RMK AO2 T01990121
Loading
Personal Weather Stations






























Interactive Weather Map New forecast layout! Learn more

10-Day Weather Forecast

Advertisements
Track Severe Weather on mobile